Time;durP1;ratioP1;P1;durP2;ratioP2;P2;SDS_P1;SDS_P2;PMS_P1;PMS_P2;Temp;Humidity;BMP_temperature;BMP_pressure;BME280_temperature;BME280_humidity;BME280_pressure;Samples;Min_cycle;Max_cycle;Signal;HPM_P1;HPM_P2
2022/04/29 05:48:36;;;;;;;3.43;3.23;;;;;;;9.23;64.89;94701.94;2618014;46;20175;-84
2022/04/29 06:42:55;;;;;;;2.67;2.50;;;;;;;10.80;63.30;94860.41;2618432;54;20140;-83
2022/04/29 07:31:30;;;;;;;4.93;2.20;;;;;;;11.74;56.99;94718.13;2611623;54;20184;-81
2022/04/29 09:23:17;;;;;;;3.03;2.77;;;;;;;13.40;48.28;94669.78;2618486;54;20172;-81
2022/04/29 09:42:32;;;;;;;;;;;;;;;;;;;;;
2022/04/29 09:45:18;;;;;;;1.30;1.30;;;;;;;13.81;47.97;94785.22;2617654;54;20152;-81
2022/04/29 09:47:47;;;;;;;2.20;2.10;;;;;;;14.34;47.59;94841.22;2618742;46;20172;-81
2022/04/29 11:00:45;;;;;;;1.57;1.47;;;;;;;16.40;42.75;94891.91;2618004;46;20152;-85
2022/04/29 11:07:07;;;;;;;2.27;1.90;;;;;;;14.40;44.07;94633.34;2618166;46;20171;-85
2022/04/29 11:10:06;;;;;;;1.10;1.00;;;;;;;16.67;43.09;94913.06;2618901;38;20568;-85
2022/04/29 11:16:24;;;;;;;1.53;1.43;;;;;;;14.94;42.00;94616.41;2618743;46;20195;-85
2022/04/29 11:19:34;;;;;;;2.67;1.07;;;;;;;17.32;43.68;94876.63;2619099;47;20187;-83
2022/04/29 11:24:48;;;;;;;1.53;1.43;;;;;;;17.15;42.14;94860.69;2619236;54;20142;-83
2022/04/29 11:27:27;;;;;;;2.50;1.80;;;;;;;16.89;42.74;94873.28;2619069;54;20152;-83
2022/04/29 11:30:01;;;;;;;1.30;1.27;;;;;;;17.06;42.25;94868.47;2618942;47;20671;-83
2022/04/29 11:32:43;;;;;;;2.40;2.20;;;;;;;17.11;42.28;94857.78;2619305;54;20152;-84
2022/04/29 11:35:13;;;;;;;1.80;1.70;;;;;;;17.14;41.46;94845.66;2619042;54;20152;-83
2022/04/29 11:37:41;;;;;;;5.33;1.73;;;;;;;17.59;41.26;94875.44;2619150;47;20161;-82
2022/04/29 11:40:12;;;;;;;1.30;1.30;;;;;;;17.19;40.34;94875.78;2619387;54;20283;-80
2022/04/29 11:43:26;;;;;;;1.73;1.63;;;;;;;16.72;41.01;94773.69;2618743;46;20192;-79
2022/04/29 13:42:25;;;;;;;;;;;;;;;;;;;;;
2022/04/29 14:53:53;;;;;;;4.27;3.17;;;;;;;16.05;46.38;94687.88;2614226;46;20315;-83
2022/04/29 14:59:08;;;;;;;4.47;3.03;;;;;;;15.27;47.09;94562.69;2613405;47;20172;-82
2022/04/29 15:01:45;;;;;;;2.73;2.53;;;;;;;15.71;46.64;94616.78;2614208;54;20299;-84
2022/04/29 15:04:32;;;;;;;3.03;2.83;;;;;;;16.51;45.84;94706.97;2614512;47;20191;-83
2022/04/29 15:07:04;;;;;;;1.93;1.83;;;;;;;16.25;46.32;94636.69;2614731;47;20247;-83
2022/04/29 15:18:01;;;;;;;2.70;2.50;;;;;;;16.44;47.75;94791.91;2616032;47;20253;-84
2022/04/29 15:20:33;;;;;;;4.60;3.50;;;;;;;16.15;47.60;94732.97;2616435;54;20680;-83
2022/04/29 15:23:02;;;;;;;3.90;3.50;;;;;;;17.03;47.34;94772.56;2616337;54;20152;-80
2022/04/29 15:35:34;;;;;;;3.33;3.03;;;;;;;15.84;48.48;94709.03;2616195;47;20141;-83
2022/04/29 15:38:12;;;;;;;5.27;3.43;;;;;;;15.63;48.77;94654.50;2616231;54;20153;-82
2022/04/29 15:40:57;;;;;;;3.33;2.97;;;;;;;15.98;48.31;94652.09;2616093;54;20176;-84
2022/04/29 15:43:51;;;;;;;3.67;2.53;;;;;;;16.90;48.00;94777.47;2616261;54;20156;-85
2022/04/29 15:46:26;;;;;;;3.00;2.80;;;;;;;14.93;47.80;94505.88;2615875;54;20160;-85
2022/04/29 15:49:42;;;;;;;3.17;2.87;;;;;;;15.32;48.73;94624.06;2615206;54;20220;-84
2022/04/29 15:52:58;;;;;;;3.60;2.43;;;;;;;14.60;48.95;94506.84;2615860;54;20260;-84
2022/04/29 15:55:44;;;;;;;3.00;2.80;;;;;;;16.54;49.17;94788.47;2616278;54;20157;-84
2022/04/29 15:58:24;;;;;;;2.80;2.60;;;;;;;15.45;49.06;94651.38;2616317;46;20200;-85
2022/04/29 16:01:20;;;;;;;3.13;2.77;;;;;;;16.25;48.97;94770.25;2616183;54;20149;-81
2022/04/29 16:03:49;;;;;;;2.77;2.57;;;;;;;14.78;49.74;94615.44;2615769;54;20153;-81
2022/04/29 16:06:19;;;;;;;3.40;2.67;;;;;;;15.40;50.79;94709.81;2616558;39;20602;-84
2022/04/29 16:08:47;;;;;;;4.83;3.30;;;;;;;15.84;50.21;94774.72;2616324;47;20172;-84
2022/04/29 16:11:21;;;;;;;3.30;3.00;;;;;;;15.98;49.83;94781.34;2616082;47;20160;-83
2022/04/29 16:13:50;;;;;;;2.43;2.20;;;;;;;15.87;49.86;94748.31;2615285;47;20755;-82
2022/04/29 16:16:21;;;;;;;3.43;2.73;;;;;;;16.31;49.78;94785.34;2616000;47;20680;-83
2022/04/29 16:21:34;;;;;;;3.03;2.60;;;;;;;16.41;48.87;94792.59;2615582;47;20211;-84
2022/04/29 16:27:14;;;;;;;3.03;2.73;;;;;;;15.94;50.19;94752.00;2615379;47;20151;-85
2022/04/29 16:29:43;;;;;;;2.50;2.30;;;;;;;15.67;48.64;94604.59;2616683;54;20673;-84
2022/04/29 16:32:13;;;;;;;3.73;2.70;;;;;;;15.77;48.16;94682.50;2615818;47;20269;-85
2022/04/29 16:34:42;;;;;;;3.57;3.27;;;;;;;16.43;48.61;94781.19;2616240;54;20276;-83
2022/04/29 16:37:29;;;;;;;3.13;2.83;;;;;;;14.60;49.01;94533.22;2616091;54;20157;-85
2022/04/29 16:40:19;;;;;;;4.33;2.87;;;;;;;15.13;49.28;94619.53;2616273;47;20145;-85
2022/04/29 16:43:00;;;;;;;3.27;2.70;;;;;;;15.10;50.11;94703.63;2616030;47;20157;-79
2022/04/29 16:45:31;;;;;;;3.33;3.03;;;;;;;15.49;49.68;94759.16;2615958;47;20160;-81
2022/04/29 16:48:02;;;;;;;3.37;3.10;;;;;;;15.53;51.09;94753.53;2616390;47;20393;-86
2022/04/29 16:50:31;;;;;;;3.57;3.27;;;;;;;15.17;50.88;94711.59;2616318;54;20236;-83
2022/04/29 16:53:13;;;;;;;2.93;2.73;;;;;;;15.08;51.03;94707.16;2614735;47;20141;-85
2022/04/29 16:55:42;;;;;;;3.10;2.87;;;;;;;14.15;50.37;94605.81;2616121;54;20153;-85
2022/04/29 17:03:47;;;;;;;4.40;3.75;;;;;;;16.24;49.74;94811.69;2614541;47;20980;-82
2022/04/29 17:06:16;;;;;;;3.53;3.17;;;;;;;16.40;49.12;94846.19;2615514;54;20153;-78
2022/04/29 17:08:46;;;;;;;4.23;3.93;;;;;;;15.76;50.05;94806.72;2614906;54;20157;-79
2022/04/29 17:11:35;;;;;;;3.63;3.00;;;;;;;15.23;50.67;94785.16;2615571;47;20153;-84
2022/04/29 17:14:07;;;;;;;3.37;2.73;;;;;;;15.38;50.92;94846.03;2614125;54;20153;-82
2022/04/29 17:16:37;;;;;;;3.00;2.70;;;;;;;15.23;51.39;94836.50;2613866;47;20145;-78
2022/04/29 17:19:05;;;;;;;3.13;2.80;;;;;;;15.15;51.42;94839.22;2616447;54;20199;-80
2022/04/29 17:21:45;;;;;;;;;;;;;;;;;;;;;
2022/04/29 17:24:14;;;;;;;3.30;3.03;;;;;;;15.30;51.26;94860.91;2616723;47;20763;-83
2022/04/29 17:26:43;;;;;;;4.57;2.87;;;;;;;14.80;51.94;94849.25;2616533;54;20164;-79
2022/04/29 17:29:16;;;;;;;3.40;3.10;;;;;;;14.87;51.89;94840.16;2616300;47;20168;-79
2022/04/29 17:31:45;;;;;;;3.23;2.80;;;;;;;15.64;52.17;94858.66;2616683;47;20229;-83
2022/04/29 17:34:15;;;;;;;2.40;2.20;;;;;;;15.45;50.22;94828.31;2617566;47;20184;-83
2022/04/29 17:36:53;;;;;;;;;;;;;;;;;;;;;
2022/04/29 17:42:33;;;;;;;3.20;2.90;;;;;;;15.54;49.46;94712.16;2616331;47;20652;-83
2022/04/29 17:45:19;;;;;;;;;;;;;;;;;;;;;
2022/04/29 17:50:42;;;;;;;4.40;3.70;;;;;;;16.25;49.52;94825.28;2614339;47;20157;-79
2022/04/29 17:53:13;;;;;;;3.43;2.50;;;;;;;16.18;48.16;94806.59;2616322;54;20153;-79
2022/04/29 17:56:09;;;;;;;3.17;2.87;;;;;;;15.37;47.74;94725.47;2616095;54;20149;-78
2022/04/29 17:58:39;;;;;;;5.27;3.20;;;;;;;15.84;48.49;94798.28;2615852;47;20233;-79
2022/04/29 18:01:10;;;;;;;2.43;2.23;;;;;;;16.05;48.56;94855.69;2616101;54;20196;-79
2022/04/29 18:03:50;;;;;;;2.40;2.03;;;;;;;16.41;50.95;94886.91;2615618;47;20160;-79
2022/04/29 18:06:28;;;;;;;2.93;2.63;;;;;;;14.81;49.19;94665.38;2615113;47;20164;-79
2022/04/29 18:09:06;;;;;;;3.40;3.10;;;;;;;15.00;48.98;94723.44;2615599;39;20216;-79
2022/04/29 18:11:35;;;;;;;3.03;2.67;;;;;;;16.34;49.33;94875.41;2615659;54;20172;-78
2022/04/29 18:14:05;;;;;;;3.63;3.37;;;;;;;16.15;48.52;94864.41;2615834;54;20157;-78
2022/04/29 18:16:37;;;;;;;2.10;2.00;;;;;;;16.06;49.52;94822.84;2616034;54;20233;-83
2022/04/29 18:19:06;;;;;;;2.17;2.07;;;;;;;16.46;48.92;94862.69;2615842;54;20279;-83
2022/04/29 18:21:35;;;;;;;2.33;2.13;;;;;;;16.59;48.82;94865.03;2616022;47;20157;-79
2022/04/29 18:24:04;;;;;;;2.93;2.63;;;;;;;16.15;49.94;94864.41;2615795;54;20157;-79
2022/04/29 18:26:34;;;;;;;3.57;2.23;;;;;;;16.69;49.84;94904.47;2615959;47;20141;-78
2022/04/29 18:29:10;;;;;;;2.50;2.30;;;;;;;16.38;48.75;94839.72;2615956;47;20191;-78
2022/04/29 18:31:42;;;;;;;2.57;2.17;;;;;;;16.46;47.40;94880.56;2616103;47;20153;-82
2022/04/29 18:34:19;;;;;;;2.60;2.50;;;;;;;16.69;48.91;94878.75;2615862;54;20843;-83
2022/04/29 18:36:48;;;;;;;3.27;2.40;;;;;;;16.84;48.87;94891.81;2615899;54;20157;-83
2022/04/29 18:39:17;;;;;;;2.33;2.13;;;;;;;16.92;50.14;94916.94;2616276;47;20145;-83
2022/04/29 18:41:46;;;;;;;2.90;2.70;;;;;;;17.25;47.77;94932.34;2616517;54;20145;-83
2022/04/29 18:44:15;;;;;;;4.70;2.23;;;;;;;17.12;47.16;94937.22;2616583;54;20153;-83
2022/04/29 18:46:46;;;;;;;2.60;2.40;;;;;;;16.99;48.76;94909.88;2616359;47;20168;-83
2022/04/29 18:49:15;;;;;;;2.83;2.63;;;;;;;16.89;49.39;94941.94;2616291;54;20164;-84
2022/04/29 18:51:44;;;;;;;2.73;2.53;;;;;;;16.70;47.72;94915.22;2615701;54;20172;-78
2022/04/29 18:54:13;;;;;;;3.50;2.90;;;;;;;16.37;49.71;94935.47;2615700;47;20145;-79
2022/04/29 18:56:41;;;;;;;2.60;2.40;;;;;;;15.92;50.96;94935.50;2616440;47;20176;-79
2022/04/29 18:59:20;;;;;;;;;;;;;;;;;;;;;
2022/04/29 19:01:52;;;;;;;3.63;3.13;;;;;;;15.37;53.79;94924.50;2615870;54;20396;-83
2022/04/29 19:04:23;;;;;;;4.00;2.83;;;;;;;15.15;53.15;94930.53;2616488;54;20157;-84
2022/04/29 19:06:52;;;;;;;4.43;2.97;;;;;;;15.02;54.10;94940.25;2616590;54;20141;-79
2022/04/29 19:09:21;;;;;;;9.43;3.50;;;;;;;14.89;54.12;94934.31;2616317;54;20148;-78
2022/04/29 19:11:50;;;;;;;3.50;3.23;;;;;;;14.44;55.20;94918.38;2615500;54;20688;-84
2022/04/29 19:14:27;;;;;;;3.37;2.73;;;;;;;14.05;54.71;94836.31;2616416;54;20149;-82
2022/04/29 19:17:03;;;;;;;3.93;2.73;;;;;;;14.64;54.18;94914.50;2616600;54;20183;-84
2022/04/29 19:19:32;;;;;;;3.37;2.97;;;;;;;15.33;54.38;94941.53;2616335;47;20223;-84
2022/04/29 19:22:01;;;;;;;3.70;3.50;;;;;;;15.17;54.23;94939.81;2616489;54;20157;-77
2022/04/29 19:24:30;;;;;;;3.50;3.13;;;;;;;15.70;52.80;94931.56;2616783;46;20141;-77
2022/04/29 19:29:41;;;;;;;3.27;2.97;;;;;;;16.59;50.09;94901.47;2617249;39;20586;-77
2022/04/29 19:32:13;;;;;;;3.50;3.13;;;;;;;16.81;49.82;94944.69;2616919;47;20145;-76
2022/04/29 19:34:42;;;;;;;2.90;2.63;;;;;;;16.24;50.85;94926.00;2616464;39;20658;-76
2022/04/29 19:37:12;;;;;;;4.27;3.53;;;;;;;14.89;53.55;94856.59;2615837;47;20168;-84
2022/04/29 19:39:44;;;;;;;13.90;9.77;;;;;;;14.83;55.17;94947.69;2615844;54;20149;-84
2022/04/29 19:42:13;;;;;;;7.13;4.90;;;;;;;14.73;55.10;94931.13;2616152;54;20157;-84
2022/04/29 19:44:46;;;;;;;5.70;4.07;;;;;;;14.90;55.77;94935.00;2615709;54;20160;-83
2022/04/29 19:47:18;;;;;;;3.87;3.13;;;;;;;14.57;56.20;94914.38;2616698;54;20149;-82
2022/04/29 19:49:47;;;;;;;4.57;3.63;;;;;;;14.53;56.24;94897.19;2616745;54;20432;-82
2022/04/29 19:52:22;;;;;;;4.03;3.30;;;;;;;14.84;56.13;94944.16;2616727;47;20154;-84
2022/04/29 20:24:35;;;;;;;6.87;3.40;;;;;;;14.77;56.16;94877.00;2614598;47;20149;-86
2022/04/29 20:27:40;;;;;;;;;;;;;;;;;;;;;
2022/04/29 20:30:15;;;;;;;5.30;3.60;;;;;;;15.05;55.54;94898.94;2615633;31;20718;-83
2022/04/29 20:35:34;;;;;;;9.73;5.27;;;;;;;13.72;56.08;94766.53;2615826;47;20145;-79
2022/04/29 20:38:21;;;;;;;4.37;3.77;;;;;;;14.29;56.18;94851.06;2616217;54;20249;-83
2022/04/29 20:46:27;;;;;;;5.57;4.47;;;;;;;14.35;55.09;94844.78;2616680;47;20153;-85
2022/04/29 20:48:58;;;;;;;7.57;4.27;;;;;;;13.78;55.29;94758.84;2616633;54;20179;-83
2022/04/29 20:51:42;;;;;;;3.67;3.27;;;;;;;14.38;55.72;94834.84;2616468;54;20205;-80
2022/04/29 20:54:11;;;;;;;7.33;4.87;;;;;;;15.16;55.67;94951.94;2617242;54;20244;-80
2022/04/29 20:56:40;;;;;;;8.23;4.30;;;;;;;15.84;54.36;94923.22;2617119;47;20672;-79
2022/04/29 20:59:12;;;;;;;4.93;4.50;;;;;;;16.21;52.92;94944.53;2617100;54;20152;-79
2022/04/29 21:01:50;;;;;;;5.53;3.80;;;;;;;15.83;53.49;94933.94;2616920;47;20180;-82
2022/04/29 21:04:31;;;;;;;5.00;4.30;;;;;;;15.39;53.92;94891.03;2616810;47;21008;-79
2022/04/29 21:07:03;;;;;;;4.57;3.60;;;;;;;15.12;55.32;94880.53;2616951;54;20159;-84
2022/04/29 21:09:32;;;;;;;4.50;4.10;;;;;;;15.51;54.30;94939.03;2617184;54;20164;-83
2022/04/29 21:14:44;;;;;;;3.93;3.63;;;;;;;15.31;54.15;94907.97;2617904;46;20153;-83
2022/04/29 21:17:16;;;;;;;3.73;3.10;;;;;;;14.53;53.29;94779.63;2618886;54;20159;-85
2022/04/29 21:20:06;;;;;;;7.47;3.20;;;;;;;15.63;53.88;94934.28;2618848;54;20180;-85
2022/04/29 21:22:35;;;;;;;3.83;3.43;;;;;;;14.35;54.60;94779.25;2619072;46;20178;-83
2022/04/29 21:25:05;;;;;;;4.67;4.27;;;;;;;14.71;55.92;94899.72;2618870;54;20161;-85
2022/04/29 21:28:01;;;;;;;4.27;3.80;;;;;;;12.78;57.51;94692.50;2618518;54;20156;-80
2022/04/29 21:32:02;;;;;;;6.43;3.40;;;;;;;13.19;58.69;94796.59;2618512;54;20153;-80
2022/04/29 21:33:50;;;;;;;5.67;3.87;;;;;;;14.36;58.22;94935.25;2618183;39;20529;-78
2022/04/29 21:39:26;;;;;;;4.57;2.70;;;;;;;14.99;55.13;94861.75;2618376;47;20244;-87
2022/04/29 21:42:16;;;;;;;3.80;3.33;;;;;;;15.86;52.39;94835.41;2618107;54;20153;-85
2022/04/29 21:44:45;;;;;;;4.90;4.27;;;;;;;16.56;51.63;94957.91;2617524;54;20140;-85
2022/04/29 21:47:31;;;;;;;5.77;4.17;;;;;;;14.98;51.29;94652.09;2618432;47;20157;-86
2022/04/29 21:50:19;;;;;;;5.87;4.13;;;;;;;16.54;50.47;94917.84;2618349;47;20176;-84
2022/04/29 21:52:48;;;;;;;6.43;4.53;;;;;;;16.48;50.30;94837.00;2618451;47;20185;-81
2022/04/29 21:55:17;;;;;;;6.07;5.40;;;;;;;17.77;49.42;94945.81;2618041;54;20395;-80
2022/04/29 21:57:46;;;;;;;6.93;4.63;;;;;;;17.65;48.16;94901.28;2618423;47;20161;-85
2022/04/29 22:04:23;;;;;;;4.33;3.80;;;;;;;16.00;49.89;94749.94;2616727;47;20649;-81
2022/04/29 22:25:05;;;;;;;;;;;;;;;;;;;;;
2022/04/29 22:30:28;;;;;;;6.00;3.50;;;;;;;16.59;50.49;94829.97;2617932;47;20179;-82
2022/04/29 22:32:59;;;;;;;5.63;3.70;;;;;;;17.27;49.49;94900.88;2618339;39;20205;-85
2022/04/29 22:35:32;;;;;;;6.47;5.57;;;;;;;15.70;50.46;94725.97;2618534;47;20145;-84
2022/04/29 22:41:14;;;;;;;5.70;5.10;;;;;;;13.99;53.72;94674.56;2616971;47;20156;-83
2022/04/29 22:43:59;;;;;;;5.03;4.63;;;;;;;15.36;52.68;94763.25;2616314;47;20240;-82
2022/04/29 22:47:03;;;;;;;;;;;;;;;;;;;;;
2022/04/29 22:49:33;;;;;;;4.93;4.13;;;;;;;16.29;50.42;94790.31;2618024;54;20688;-87
2022/04/29 22:52:06;;;;;;;6.10;5.37;;;;;;;15.76;52.44;94845.97;2617765;47;20261;-84
2022/04/29 22:54:34;;;;;;;5.07;4.50;;;;;;;17.11;50.96;94923.59;2618530;46;20161;-83
2022/04/29 22:57:07;;;;;;;7.13;5.17;;;;;;;17.34;49.85;94913.84;2618560;47;20168;-80
2022/04/29 22:59:37;;;;;;;5.07;4.57;;;;;;;16.49;51.21;94872.75;2618381;47;20152;-78
2022/04/29 23:02:15;;;;;;;7.97;5.03;;;;;;;15.87;52.94;94881.84;2617996;54;20244;-83
2022/04/29 23:04:44;;;;;;;6.63;5.20;;;;;;;15.27;55.71;94920.06;2618266;47;20159;-84
2022/04/29 23:07:14;;;;;;;7.60;4.63;;;;;;;14.93;56.94;94917.25;2617833;47;20148;-79
2022/04/29 23:09:43;;;;;;;6.30;5.37;;;;;;;14.85;57.47;94904.97;2617287;47;20152;-79
2022/04/29 23:12:15;;;;;;;4.07;3.73;;;;;;;15.10;56.65;94889.78;2617393;54;20157;-80
2022/04/29 23:14:55;;;;;;;;;;;;;;;;;;;;;
2022/04/29 23:20:15;;;;;;;4.13;3.73;;;;;;;13.57;58.28;94770.44;2617663;46;20185;-79
2022/04/29 23:22:45;;;;;;;6.13;4.73;;;;;;;14.08;59.87;94900.44;2617694;47;20141;-82
2022/04/29 23:25:14;;;;;;;7.60;3.60;;;;;;;13.50;60.56;94838.63;2617632;54;20145;-82
2022/04/29 23:27:49;;;;;;;6.57;4.07;;;;;;;13.19;60.77;94812.94;2617790;54;20156;-83
2022/04/29 23:30:17;;;;;;;5.53;4.67;;;;;;;13.36;61.13;94849.66;2617891;54;20137;-78
2022/04/29 23:32:46;;;;;;;9.77;5.67;;;;;;;13.76;60.59;94894.72;2617588;54;20289;-77
2022/04/29 23:35:15;;;;;;;6.87;5.13;;;;;;;14.09;59.78;94899.75;2617624;47;20641;-78
2022/04/29 23:37:45;;;;;;;5.07;4.57;;;;;;;14.90;57.09;94892.94;2617588;54;20214;-79
2022/04/29 23:40:16;;;;;;;9.53;3.97;;;;;;;15.26;56.02;94895.06;2617733;47;20236;-79
2022/04/29 23:42:47;;;;;;;3.73;3.10;;;;;;;15.96;54.08;94886.28;2617895;47;20145;-82
2022/04/29 23:45:16;;;;;;;2.97;2.77;;;;;;;15.91;53.05;94904.75;2617730;54;20168;-84
2022/04/29 23:47:44;;;;;;;3.23;2.90;;;;;;;16.06;53.62;94891.44;2618915;54;20152;-83
2022/04/29 23:50:15;;;;;;;4.17;3.77;;;;;;;16.03;52.41;94873.53;2617721;54;20169;-81
2022/04/29 23:53:11;;;;;;;4.93;3.80;;;;;;;15.42;53.71;94866.81;2617041;54;20168;-81
2022/04/29 23:56:16;;;;;;;4.60;3.83;;;;;;;15.38;54.98;94898.13;2616095;54;20149;-82
